Minto Bridge, Canada
Current Conditions -  °F | °C
As of 5:00 PM on Friday 28 Nov 2014 (Local Time) from CYMA Reporting Station
Scattered Clouds Scattered Clouds  
Wind Chill: -31°   Ceiling: Unl
Heat Index: -31°   Visibility: 20mi
Dew Point: -36°   Wind: 0mph
Humidity: 75%   Direction: NA
Pressure: 30.24"   Gusts: NA
Location:  63.7°N, 135.85°W
Report Text: CYMA 290100Z 00000KT 20SM FEW050 SCT090 M35/M38 A3024 RMK SC1AC3 SLP328
Loading
Personal Weather Stations






























Interactive Weather Map New forecast layout! Learn more

10-Day Weather Forecast

Advertisements
Track Severe Weather on mobile